NJE221 ELLX-EDGS
Flight info
| Callsign | NJE221 |
|---|---|
| Flight time | 0h 26m |
| Altitude | 23000 |
| Route | ASMOX Y891 ROPUV L607 UBIDU L984 RUDUS Z10 TABUM |
| Aircraft | C700/M-SBDGHM1RWXY/LB2 |
Departure
| Time | 2026-04-29 19:23 |
|---|---|
| Airport | Luxembourg-Findel International Airport (ELLX) |
Arrival
| Time | 2026-04-29 19:50 |
|---|---|
| Airport | Siegerland Airport (EDGS) |
| Time | Latitude | Longitude | Altitude | Speed | Heading |
|---|---|---|---|---|---|
| 2026-04-29 19:10 | 49.63011 | 6.21044 | 1227 ft | 0 kts | 244° |
| 2026-04-29 19:18 | 49.63008 | 6.21032 | 1227 ft | 5 kts | 245° |
| 2026-04-29 19:19 | 49.62965 | 6.21022 | 1227 ft | 10 kts | 149° |
| 2026-04-29 19:19 | 49.62901 | 6.21052 | 1227 ft | 10 kts | 198° |
| 2026-04-29 19:19 | 49.62861 | 6.20948 | 1228 ft | 13 kts | 245° |
| 2026-04-29 19:19 | 49.62822 | 6.20823 | 1233 ft | 13 kts | 244° |
| 2026-04-29 19:20 | 49.62761 | 6.20698 | 1233 ft | 17 kts | 224° |
| 2026-04-29 19:20 | 49.62679 | 6.20599 | 1234 ft | 14 kts | 220° |
| 2026-04-29 19:20 | 49.62602 | 6.20474 | 1230 ft | 19 kts | 228° |
| 2026-04-29 19:20 | 49.62525 | 6.20336 | 1224 ft | 16 kts | 231° |
| 2026-04-29 19:21 | 49.62469 | 6.20205 | 1217 ft | 18 kts | 240° |
| 2026-04-29 19:21 | 49.62400 | 6.20021 | 1206 ft | 15 kts | 240° |
| 2026-04-29 19:21 | 49.62332 | 6.19836 | 1195 ft | 24 kts | 240° |
| 2026-04-29 19:21 | 49.62265 | 6.19656 | 1185 ft | 17 kts | 240° |
| 2026-04-29 19:22 | 49.62194 | 6.19547 | 1176 ft | 14 kts | 171° |
| 2026-04-29 19:22 | 49.62141 | 6.19590 | 1184 ft | 8 kts | 152° |
| 2026-04-29 19:22 | 49.62098 | 6.19677 | 1187 ft | 9 kts | 83° |
| 2026-04-29 19:22 | 49.62105 | 6.19704 | 1190 ft | 0 kts | 60° |
| 2026-04-29 19:23 | 49.62108 | 6.19710 | 1190 ft | 10 kts | 60° |
| 2026-04-29 19:23 | 49.62306 | 6.20243 | 1220 ft | 105 kts | 61° |
| 2026-04-29 19:23 | 49.62754 | 6.21445 | 1708 ft | 149 kts | 59° |
| 2026-04-29 19:23 | 49.63342 | 6.23001 | 2736 ft | 176 kts | 62° |
| 2026-04-29 19:24 | 49.64004 | 6.24770 | 3838 ft | 197 kts | 64° |
| 2026-04-29 19:24 | 49.64739 | 6.26743 | 4167 ft | 231 kts | 64° |
| 2026-04-29 19:24 | 49.65539 | 6.28908 | 4296 ft | 236 kts | 64° |
| 2026-04-29 19:24 | 49.66400 | 6.31243 | 5465 ft | 256 kts | 64° |
| 2026-04-29 19:25 | 49.67296 | 6.33649 | 7313 ft | 262 kts | 62° |
| 2026-04-29 19:25 | 49.68256 | 6.36091 | 9155 ft | 267 kts | 56° |
| 2026-04-29 19:25 | 49.69455 | 6.38291 | 11078 ft | 273 kts | 49° |
| 2026-04-29 19:25 | 49.70825 | 6.40532 | 12407 ft | 298 kts | 48° |
| 2026-04-29 19:26 | 49.72218 | 6.42968 | 13984 ft | 316 kts | 50° |
| 2026-04-29 19:26 | 49.73703 | 6.45788 | 14228 ft | 354 kts | 51° |
| 2026-04-29 19:26 | 49.75263 | 6.48795 | 14230 ft | 362 kts | 51° |
| 2026-04-29 19:26 | 49.76888 | 6.51820 | 14229 ft | 367 kts | 50° |
| 2026-04-29 19:27 | 49.78517 | 6.54820 | 14569 ft | 366 kts | 50° |
| 2026-04-29 19:27 | 49.80158 | 6.57890 | 14927 ft | 372 kts | 50° |
| 2026-04-29 19:27 | 49.81804 | 6.60992 | 15292 ft | 372 kts | 50° |
| 2026-04-29 19:27 | 49.83448 | 6.64077 | 15735 ft | 374 kts | 50° |
| 2026-04-29 19:28 | 49.85117 | 6.67205 | 16173 ft | 378 kts | 50° |
| 2026-04-29 19:28 | 49.86801 | 6.70367 | 16216 ft | 379 kts | 50° |
| 2026-04-29 19:28 | 49.88465 | 6.73504 | 16230 ft | 376 kts | 50° |
| 2026-04-29 19:28 | 49.90100 | 6.76587 | 16230 ft | 376 kts | 50° |
| 2026-04-29 19:29 | 49.91806 | 6.79757 | 16230 ft | 377 kts | 49° |
| 2026-04-29 19:29 | 49.93580 | 6.82747 | 16240 ft | 377 kts | 46° |
| 2026-04-29 19:29 | 49.95378 | 6.85701 | 16250 ft | 378 kts | 46° |
| 2026-04-29 19:29 | 49.97141 | 6.88740 | 16251 ft | 379 kts | 48° |
| 2026-04-29 19:30 | 49.98883 | 6.91808 | 16402 ft | 375 kts | 48° |
| 2026-04-29 19:30 | 50.00625 | 6.94818 | 16922 ft | 379 kts | 47° |
| 2026-04-29 19:30 | 50.02410 | 6.97874 | 17458 ft | 381 kts | 47° |
| 2026-04-29 19:30 | 50.04183 | 7.00936 | 17991 ft | 383 kts | 47° |
| 2026-04-29 19:31 | 50.05948 | 7.04004 | 18541 ft | 387 kts | 47° |
| 2026-04-29 19:31 | 50.07775 | 7.07175 | 19021 ft | 389 kts | 47° |
| 2026-04-29 19:31 | 50.09591 | 7.10324 | 19284 ft | 394 kts | 48° |
| 2026-04-29 19:31 | 50.11409 | 7.13480 | 19286 ft | 389 kts | 48° |
| 2026-04-29 19:32 | 50.13188 | 7.16580 | 19288 ft | 388 kts | 48° |
| 2026-04-29 19:32 | 50.14994 | 7.19727 | 19288 ft | 391 kts | 48° |
| 2026-04-29 19:32 | 50.16803 | 7.22881 | 19287 ft | 389 kts | 48° |
| 2026-04-29 19:32 | 50.18608 | 7.26034 | 19285 ft | 389 kts | 48° |
| 2026-04-29 19:33 | 50.20410 | 7.29185 | 19289 ft | 390 kts | 48° |
| 2026-04-29 19:33 | 50.22210 | 7.32337 | 19290 ft | 389 kts | 48° |
| 2026-04-29 19:33 | 50.24005 | 7.35484 | 19289 ft | 388 kts | 48° |
| 2026-04-29 19:33 | 50.25799 | 7.38634 | 19302 ft | 387 kts | 48° |
| 2026-04-29 19:34 | 50.27589 | 7.41778 | 19306 ft | 387 kts | 48° |
| 2026-04-29 19:34 | 50.29395 | 7.44955 | 19306 ft | 386 kts | 48° |
| 2026-04-29 19:34 | 50.31158 | 7.48060 | 19305 ft | 386 kts | 48° |
| 2026-04-29 19:34 | 50.32934 | 7.51194 | 19309 ft | 387 kts | 48° |
| 2026-04-29 19:35 | 50.34733 | 7.54371 | 19308 ft | 389 kts | 48° |
| 2026-04-29 19:35 | 50.36526 | 7.57540 | 19256 ft | 389 kts | 48° |
| 2026-04-29 19:35 | 50.38321 | 7.60723 | 18900 ft | 388 kts | 48° |
| 2026-04-29 19:35 | 50.40091 | 7.63870 | 18539 ft | 383 kts | 48° |
| 2026-04-29 19:36 | 50.41847 | 7.67003 | 18136 ft | 381 kts | 48° |
| 2026-04-29 19:36 | 50.43593 | 7.70124 | 17737 ft | 380 kts | 48° |
| 2026-04-29 19:36 | 50.45331 | 7.73236 | 17346 ft | 379 kts | 48° |
| 2026-04-29 19:36 | 50.47069 | 7.76347 | 16961 ft | 378 kts | 48° |
| 2026-04-29 19:37 | 50.48792 | 7.79435 | 16577 ft | 375 kts | 48° |
| 2026-04-29 19:37 | 50.49951 | 7.81513 | 16450 ft | 372 kts | 48° |
| 2026-04-29 19:37 | 50.52219 | 7.85585 | 15834 ft | 374 kts | 48° |
| 2026-04-29 19:37 | 50.53919 | 7.88638 | 15370 ft | 369 kts | 48° |
| 2026-04-29 19:38 | 50.55602 | 7.91661 | 14916 ft | 367 kts | 48° |
| 2026-04-29 19:38 | 50.57281 | 7.94677 | 14439 ft | 367 kts | 48° |
| 2026-04-29 19:38 | 50.58960 | 7.97679 | 13951 ft | 363 kts | 47° |
| 2026-04-29 19:38 | 50.60814 | 8.00349 | 13469 ft | 359 kts | 38° |
| 2026-04-29 19:39 | 50.62861 | 8.02453 | 12993 ft | 343 kts | 30° |
| 2026-04-29 19:39 | 50.64961 | 8.03944 | 12552 ft | 321 kts | 21° |
| 2026-04-29 19:39 | 50.67042 | 8.04877 | 12145 ft | 302 kts | 14° |
| 2026-04-29 19:39 | 50.69068 | 8.05325 | 11760 ft | 288 kts | 7° |
| 2026-04-29 19:40 | 50.71039 | 8.05347 | 11389 ft | 279 kts | 0° |
| 2026-04-29 19:40 | 50.72953 | 8.04981 | 11030 ft | 278 kts | 353° |
| 2026-04-29 19:40 | 50.74845 | 8.04223 | 10664 ft | 283 kts | 346° |
| 2026-04-29 19:40 | 50.76685 | 8.03067 | 10297 ft | 287 kts | 339° |
| 2026-04-29 19:41 | 50.78437 | 8.01517 | 9888 ft | 290 kts | 331° |
| 2026-04-29 19:41 | 50.80064 | 7.99641 | 9505 ft | 289 kts | 327° |
| 2026-04-29 19:41 | 50.81680 | 7.97718 | 9119 ft | 282 kts | 327° |
| 2026-04-29 19:41 | 50.83224 | 7.95900 | 8754 ft | 273 kts | 327° |
| 2026-04-29 19:42 | 50.84723 | 7.94129 | 8409 ft | 266 kts | 327° |
| 2026-04-29 19:42 | 50.85224 | 7.93535 | 8285 ft | 264 kts | 327° |
| 2026-04-29 19:42 | 50.87587 | 7.90708 | 7717 ft | 246 kts | 325° |
| 2026-04-29 19:42 | 50.88585 | 7.88569 | 7383 ft | 244 kts | 292° |
| 2026-04-29 19:43 | 50.88759 | 7.85950 | 7079 ft | 240 kts | 261° |
| 2026-04-29 19:43 | 50.88114 | 7.83573 | 6777 ft | 235 kts | 230° |
| 2026-04-29 19:43 | 50.86850 | 7.82015 | 6470 ft | 228 kts | 199° |
| 2026-04-29 19:43 | 50.85338 | 7.81592 | 6163 ft | 218 kts | 171° |
| 2026-04-29 19:44 | 50.83933 | 7.82257 | 5869 ft | 207 kts | 145° |
| 2026-04-29 19:44 | 50.82893 | 7.83730 | 5602 ft | 198 kts | 124° |
| 2026-04-29 19:44 | 50.82075 | 7.85428 | 5381 ft | 186 kts | 124° |
| 2026-04-29 19:44 | 50.81317 | 7.86966 | 5103 ft | 168 kts | 125° |
| 2026-04-29 19:45 | 50.80643 | 7.88324 | 4968 ft | 143 kts | 123° |
| 2026-04-29 19:45 | 50.80064 | 7.89492 | 4851 ft | 132 kts | 122° |
| 2026-04-29 19:45 | 50.79537 | 7.90563 | 4657 ft | 115 kts | 122° |
| 2026-04-29 19:45 | 50.79053 | 7.91552 | 4502 ft | 113 kts | 123° |
| 2026-04-29 19:46 | 50.78573 | 7.92528 | 4354 ft | 111 kts | 123° |
| 2026-04-29 19:46 | 50.78095 | 7.93495 | 4203 ft | 111 kts | 121° |
| 2026-04-29 19:46 | 50.77628 | 7.94440 | 4053 ft | 108 kts | 120° |
| 2026-04-29 19:46 | 50.77323 | 7.95059 | 3948 ft | 107 kts | 121° |
| 2026-04-29 19:47 | 50.76868 | 7.95981 | 3806 ft | 108 kts | 120° |
| 2026-04-29 19:47 | 50.76405 | 7.96910 | 3657 ft | 107 kts | 121° |
| 2026-04-29 19:47 | 50.75957 | 7.97811 | 3516 ft | 101 kts | 118° |
| 2026-04-29 19:47 | 50.75504 | 7.98748 | 3374 ft | 113 kts | 119° |
| 2026-04-29 19:48 | 50.75026 | 7.99700 | 3214 ft | 107 kts | 119° |
| 2026-04-29 19:48 | 50.74574 | 8.00614 | 3069 ft | 107 kts | 118° |
| 2026-04-29 19:48 | 50.74115 | 8.01535 | 2917 ft | 106 kts | 119° |
| 2026-04-29 19:48 | 50.73654 | 8.02468 | 2787 ft | 110 kts | 120° |
| 2026-04-29 19:49 | 50.73180 | 8.03434 | 2611 ft | 110 kts | 121° |
| 2026-04-29 19:49 | 50.72710 | 8.04368 | 2499 ft | 109 kts | 120° |
| 2026-04-29 19:49 | 50.72236 | 8.05320 | 2352 ft | 109 kts | 122° |
| 2026-04-29 19:49 | 50.71770 | 8.06250 | 2145 ft | 106 kts | 121° |
| 2026-04-29 19:50 | 50.71343 | 8.07121 | 2011 ft | 99 kts | 121° |
| 2026-04-29 19:50 | 50.70952 | 8.07923 | 1966 ft | 74 kts | 126° |
| 2026-04-29 19:50 | 50.70713 | 8.08401 | 1942 ft | 41 kts | 129° |
| 2026-04-29 19:50 | 50.70556 | 8.08711 | 1941 ft | 31 kts | 128° |
| 2026-04-29 19:51 | 50.70454 | 8.08917 | 1947 ft | 6 kts | 129° |
| 2026-04-29 19:51 | 50.70454 | 8.08918 | 1947 ft | 0 kts | 130° |
| 2026-04-29 19:51 | 50.70423 | 8.08950 | 1947 ft | 11 kts | 160° |
| 2026-04-29 19:51 | 50.70336 | 8.08892 | 1938 ft | 15 kts | 216° |
| 2026-04-29 19:52 | 50.70309 | 8.08808 | 1927 ft | 13 kts | 282° |
| 2026-04-29 19:52 | 50.70365 | 8.08678 | 1931 ft | 16 kts | 309° |
| 2026-04-29 19:52 | 50.70446 | 8.08517 | 1937 ft | 21 kts | 308° |
| 2026-04-29 19:52 | 50.70548 | 8.08312 | 1950 ft | 24 kts | 308° |
| 2026-04-29 19:53 | 50.70639 | 8.08131 | 1957 ft | 7 kts | 308° |
| 2026-04-29 19:53 | 50.70676 | 8.08052 | 1957 ft | 8 kts | 290° |
| 2026-04-29 19:53 | 50.70659 | 8.08014 | 1957 ft | 8 kts | 223° |
| 2026-04-29 19:53 | 50.70605 | 8.07945 | 1962 ft | 9 kts | 222° |
| 2026-04-29 19:54 | 50.70552 | 8.07808 | 1965 ft | 4 kts | 219° |
| 2026-04-29 19:54 | 50.70529 | 8.07819 | 1965 ft | 0 kts | 154° |
| 2026-04-29 19:54 | 50.70528 | 8.07820 | 1965 ft | 1 kts | 154° |